Pagrindinis puslapis
METAR-TAF:

METAR-TAF

Oro uostai :

Washington, Virdžinija, Jungtinės Amerikos Valstijos

platuma: 38-56-05N, ilguma: 077-26-51W, Aukštis: 95 m

Dabartinis oras

Ataskaita buvo paskelbta 45 minutes, ne 04:52 UTC
Vėjas 5 kt iš Pietryčių
Temperatūra 0°C
Drėgmė 47%
Slėgis 1024 hPa
Matomumas: 16.1 km
Giedras dangus

METAR: KIAD 230452Z 14005KT 10SM CLR 00/M10 A3025 RMK AO2 SLP244 T00001100 401281078

Laikas: 00:37 (05:37 UTC)

Prognozė

Ataskaita buvo paskelbta 6 valandos ir 6 minutes, ne 23:31 UTC
Prognozė galioja nuo 23 metu 00 UTC su 24 metu 06 UTC
Vėjas 3 kt iš Pietų/Pietvakarių
Matomumas: 10 km
Giedras dangus
Nuo 23 metu 1700 UTC
Vėjas 7 kt iš Pietų
Matomumas: 10 km
Mažai debesys ne aukštis 25000 ft
Nuo 24 metu 0000 UTC
Vėjas 4 kt iš Pietų
Matomumas: 10 km
Išsisklaidę debesys ne aukštis 25000 ft

TAF: KIAD 222331Z 2300/2406 20003KT P6SM SKC FM231700 19007KT P6SM FEW250 FM240000 19004KT P6SM SCT250

Orai ataskaitas ir orų prognozės (METAR, TAF).

turimą stotys yra geltonos ir raudonos taškus žemėlapyje.

Perkelti pele per norėdami pamatyti stoties vardą.

Tada spustelėkite, norėdami matyti oro stebėjimo ir prognozės.

Norėdami pakeisti žemėlapį: spustelėkite ant žalios mygtukų su juodo kryžiaus žemyn,; žalią mygtuką su brūkšneliu, jei norite nutolinti; arba žalių rodyklių gretimoms žemėlapius.


METAR-TAF: